Time;durP1;ratioP1;P1;durP2;ratioP2;P2;SDS_P1;SDS_P2;PMS_P1;PMS_P2;Temp;Humidity;BMP_temperature;BMP_pressure;BME280_temperature;BME280_humidity;BME280_pressure;Samples;Min_cycle;Max_cycle;Signal;HPM_P1;HPM_P2
2024/02/11 00:01:54;;;;;;;0.20;0.20;;;;;;;13.63;45.35;99943.31;4971708;28;21109;-87
2024/02/11 00:04:20;;;;;;;0.20;0.20;;;;;;;13.62;45.69;99941.66;4955350;28;20117;-86
2024/02/11 00:06:46;;;;;;;0.20;0.20;;;;;;;13.51;47.89;99933.81;4987671;28;20034;-86
2024/02/11 00:09:12;;;;;;;0.20;0.20;;;;;;;13.52;48.65;99935.47;4971172;28;20151;-87
2024/02/11 00:11:38;;;;;;;0.20;0.20;;;;;;;13.56;48.06;99940.31;4972473;28;20027;-87
2024/02/11 00:14:03;;;;;;;0.20;0.20;;;;;;;13.48;48.44;99940.91;4971365;28;20058;-87
2024/02/11 00:16:30;;;;;;;0.20;0.20;;;;;;;13.33;48.13;99944.56;4954952;28;20058;-86
2024/02/11 00:18:56;;;;;;;0.20;0.20;;;;;;;13.27;47.44;99951.97;4971021;28;20049;-87
2024/02/11 00:21:23;;;;;;;0.20;0.20;;;;;;;13.31;47.06;99948.22;4971055;28;20129;-87
2024/02/11 00:23:49;;;;;;;0.20;0.20;;;;;;;13.28;47.26;99925.91;4970838;28;20034;-86
2024/02/11 00:26:16;;;;;;;0.20;0.20;;;;;;;13.37;47.93;99945.19;4971472;28;20027;-86
2024/02/11 00:28:42;;;;;;;0.20;0.20;;;;;;;13.32;47.75;99952.47;4971264;28;20022;-87
2024/02/11 00:31:07;;;;;;;0.20;0.20;;;;;;;13.19;48.15;99945.56;4971181;28;20669;-87
2024/02/11 00:33:33;;;;;;;0.17;0.17;;;;;;;13.20;47.80;99936.00;4971386;28;20035;-87
2024/02/11 00:36:00;;;;;;;0.20;0.20;;;;;;;13.23;48.08;99942.75;4970955;28;20705;-87
2024/02/11 00:38:28;;;;;;;0.20;0.20;;;;;;;13.19;48.14;99923.97;4954738;28;20027;-86
2024/02/11 00:40:54;;;;;;;0.20;0.20;;;;;;;13.18;48.05;99937.84;4970848;28;20035;-87
2024/02/11 00:43:20;;;;;;;0.15;0.15;;;;;;;13.19;48.43;99955.13;4970764;28;20413;-86
2024/02/11 00:45:45;;;;;;;0.10;0.10;;;;;;;13.05;48.93;99937.84;4970753;28;20057;-87
2024/02/11 00:48:11;;;;;;;0.20;0.20;;;;;;;12.93;49.11;99926.56;4970934;28;20078;-88
2024/02/11 00:50:37;;;;;;;0.20;0.20;;;;;;;13.04;49.28;99941.41;4987005;28;20031;-86
2024/02/11 00:53:05;;;;;;;0.20;0.20;;;;;;;13.12;49.05;99948.66;4971710;28;20054;-86
2024/02/11 00:55:33;;;;;;;0.17;0.17;;;;;;;13.17;49.54;99960.41;4970731;28;20038;-86
2024/02/11 00:57:59;;;;;;;0.15;0.15;;;;;;;13.00;49.56;99944.34;4970870;28;20031;-86
2024/02/11 01:00:25;;;;;;;0.20;0.20;;;;;;;12.87;49.95;99937.38;4954479;28;20047;-86
2024/02/11 01:02:50;;;;;;;0.20;0.20;;;;;;;12.84;49.60;99935.00;4970435;28;20026;-87
2024/02/11 01:05:16;;;;;;;0.20;0.20;;;;;;;12.83;49.53;99932.50;4970577;28;20030;-87
2024/02/11 01:07:42;;;;;;;0.20;0.20;;;;;;;12.90;49.76;99934.59;4971788;28;20027;-87
2024/02/11 01:10:10;;;;;;;0.10;0.10;;;;;;;12.68;50.55;99916.22;4970664;28;20118;-86
2024/02/11 01:12:39;;;;;;;0.20;0.20;;;;;;;12.71;51.14;99938.56;4972017;28;20037;-87
2024/02/11 01:15:12;;;;;;;0.20;0.20;;;;;;;12.71;50.49;99934.19;4986671;28;20117;-86
2024/02/11 01:17:38;;;;;;;;;;;;;;;12.87;50.49;99945.16;4970981;28;20616;-87
2024/02/11 01:20:13;;;;;;;0.20;0.20;;;;;;;12.67;50.95;99930.13;4970560;28;19974;-86
2024/02/11 01:22:40;;;;;;;0.20;0.20;;;;;;;12.75;50.80;99933.03;4955106;28;20515;-86
2024/02/11 01:25:06;;;;;;;0.20;0.20;;;;;;;12.61;50.73;99912.41;4970232;28;20019;-87
2024/02/11 01:27:33;;;;;;;0.20;0.20;;;;;;;12.55;50.50;99886.88;4970274;28;20057;-86
2024/02/11 01:29:59;;;;;;;0.20;0.20;;;;;;;12.74;51.31;99896.81;4971905;28;20121;-87
2024/02/11 01:32:24;;;;;;;0.20;0.20;;;;;;;12.76;51.39;99897.53;4970853;28;20624;-87
2024/02/11 01:34:50;;;;;;;0.20;0.20;;;;;;;12.61;51.75;99883.84;4970403;28;20058;-87
2024/02/11 01:37:16;;;;;;;0.20;0.20;;;;;;;12.61;52.85;99896.84;4957071;28;20186;-87
2024/02/11 01:39:41;;;;;;;0.20;0.20;;;;;;;12.61;53.17;99902.03;4974120;28;20030;-86
2024/02/11 01:42:07;;;;;;;0.20;0.20;;;;;;;12.65;52.26;99911.25;4974108;28;20039;-87
2024/02/11 01:44:32;;;;;;;0.20;0.20;;;;;;;12.66;52.68;99909.47;4958008;28;20088;-86
2024/02/11 01:46:58;;;;;;;0.10;0.10;;;;;;;12.63;51.98;99910.53;4974325;28;20039;-87
2024/02/11 01:49:24;;;;;;;0.20;0.20;;;;;;;12.53;51.39;99899.13;4973677;28;20086;-86
2024/02/11 01:51:49;;;;;;;0.20;0.20;;;;;;;12.57;51.14;99900.56;4974023;28;20041;-86
2024/02/11 01:54:16;;;;;;;0.20;0.20;;;;;;;12.74;50.19;99909.78;4973718;28;20049;-86
2024/02/11 01:56:41;;;;;;;0.20;0.20;;;;;;;12.74;51.71;99922.75;4973947;28;20031;-87
2024/02/11 01:59:07;;;;;;;0.20;0.20;;;;;;;12.72;51.79;99930.66;4973752;28;20058;-87
2024/02/11 02:01:33;;;;;;;0.20;0.20;;;;;;;12.68;51.95;99917.97;4973356;28;20105;-87
2024/02/11 02:04:17;;;;;;;0.20;0.20;;;;;;;12.74;51.68;99915.81;4973496;28;20058;-86
2024/02/11 02:06:42;;;;;;;0.20;0.20;;;;;;;12.61;52.13;99902.84;4973352;28;20607;-87
2024/02/11 02:09:11;;;;;;;0.20;0.20;;;;;;;12.54;52.44;99895.59;4973681;28;20113;-86
2024/02/11 02:11:38;;;;;;;0.20;0.20;;;;;;;12.65;51.60;99906.06;4973295;28;20034;-86
2024/02/11 02:14:05;;;;;;;0.20;0.20;;;;;;;12.60;52.74;99913.34;4957683;28;20030;-87
2024/02/11 02:16:30;;;;;;;0.20;0.20;;;;;;;12.48;52.18;99907.19;4957631;28;20113;-86
2024/02/11 02:18:56;;;;;;;0.20;0.20;;;;;;;12.50;51.90;99900.16;4957403;28;20488;-87
2024/02/11 02:21:23;;;;;;;0.10;0.10;;;;;;;12.46;51.00;99897.88;4972907;28;20035;-87
2024/02/11 02:23:49;;;;;;;0.20;0.20;;;;;;;12.58;52.45;99902.22;4957337;28;20496;-87
2024/02/11 02:26:15;;;;;;;0.20;0.20;;;;;;;12.58;52.76;99891.84;4973340;28;20023;-87
2024/02/11 02:28:40;;;;;;;0.20;0.20;;;;;;;12.49;52.61;99876.94;4957301;28;20023;-87
2024/02/11 02:31:07;;;;;;;0.20;0.20;;;;;;;12.49;52.03;99867.38;4989260;28;20106;-86
2024/02/11 02:33:33;;;;;;;0.20;0.20;;;;;;;12.61;52.00;99889.88;4988836;28;20058;-86
2024/02/11 02:35:58;;;;;;;0.20;0.20;;;;;;;12.63;52.07;99880.22;4973214;28;20037;-86
2024/02/11 02:38:24;;;;;;;0.20;0.20;;;;;;;12.49;53.30;99867.38;4973162;28;20027;-87
2024/02/11 02:40:52;;;;;;;0.20;0.20;;;;;;;12.59;52.43;99859.78;4956852;28;20055;-87
2024/02/11 02:43:17;;;;;;;0.20;0.20;;;;;;;12.65;51.64;99872.31;4956991;28;20062;-86
2024/02/11 02:45:43;;;;;;;0.20;0.20;;;;;;;12.56;53.06;99867.75;4972841;28;20062;-87
2024/02/11 02:48:08;;;;;;;0.20;0.20;;;;;;;12.41;53.14;99863.66;4971229;28;20038;-86
2024/02/11 02:50:37;;;;;;;0.20;0.20;;;;;;;12.39;52.53;99866.34;4973195;28;20110;-87
2024/02/11 02:53:03;;;;;;;0.20;0.20;;;;;;;12.42;52.66;99865.31;4972943;28;20034;-87
2024/02/11 02:55:28;;;;;;;0.20;0.20;;;;;;;12.34;52.54;99858.03;4972528;28;20404;-87
2024/02/11 02:57:54;;;;;;;0.20;0.20;;;;;;;12.37;53.15;99862.19;4972763;28;20536;-86
2024/02/11 03:00:20;;;;;;;0.20;0.20;;;;;;;12.36;53.51;99863.94;4940737;28;20043;-86
2024/02/11 03:02:46;;;;;;;0.20;0.20;;;;;;;12.31;52.71;99846.13;4940267;28;20027;-86
2024/02/11 03:05:12;;;;;;;0.20;0.20;;;;;;;12.42;51.88;99866.13;4972437;28;20027;-87
2024/02/11 03:07:40;;;;;;;0.20;0.20;;;;;;;12.46;51.93;99866.75;4972427;28;20027;-87
2024/02/11 03:10:07;;;;;;;0.10;0.10;;;;;;;12.47;52.65;99878.78;4972405;28;20598;-86
2024/02/11 03:12:32;;;;;;;0.20;0.20;;;;;;;12.18;52.39;99847.88;4972321;28;20374;-87
2024/02/11 03:14:58;;;;;;;0.17;0.17;;;;;;;12.21;52.49;99858.06;4972332;28;20042;-86
2024/02/11 03:17:23;;;;;;;0.20;0.20;;;;;;;12.25;52.94;99859.50;4971868;28;20034;-86
2024/02/11 03:19:49;;;;;;;0.20;0.20;;;;;;;12.19;52.48;99834.00;4972104;28;20032;-87
2024/02/11 03:22:14;;;;;;;0.20;0.20;;;;;;;12.25;52.50;99841.34;4988459;28;20037;-87
2024/02/11 03:24:40;;;;;;;0.20;0.20;;;;;;;12.28;52.03;99830.75;4988191;28;20034;-87
2024/02/11 03:27:06;;;;;;;0.20;0.20;;;;;;;12.22;52.08;99820.81;4972260;28;20515;-86
2024/02/11 03:29:35;;;;;;;0.20;0.20;;;;;;;12.21;52.31;99826.94;4972050;28;20049;-87
2024/02/11 03:32:01;;;;;;;0.20;0.20;;;;;;;11.93;53.04;99786.50;4971934;28;20030;-87
2024/02/11 03:34:26;;;;;;;0.20;0.20;;;;;;;12.13;52.90;99818.00;4973267;28;20102;-86
2024/02/11 03:36:52;;;;;;;0.20;0.20;;;;;;;12.14;52.72;99819.66;4973250;28;20026;-86
2024/02/11 03:39:19;;;;;;;0.20;0.20;;;;;;;12.10;52.46;99824.25;4971616;28;20121;-86
2024/02/11 03:41:45;;;;;;;0.20;0.20;;;;;;;12.11;53.08;99819.88;4972015;28;20027;-86
2024/02/11 03:44:10;;;;;;;0.20;0.20;;;;;;;11.96;53.52;99795.81;4971683;28;20065;-87
2024/02/11 03:46:36;;;;;;;0.10;0.10;;;;;;;11.76;52.93;99784.16;4971934;28;20081;-86
2024/02/11 03:49:01;;;;;;;0.20;0.20;;;;;;;11.99;52.60;99813.75;4972952;28;20504;-86
2024/02/11 03:51:27;;;;;;;0.20;0.20;;;;;;;11.88;52.58;99803.28;4971739;28;20404;-86
2024/02/11 03:53:53;;;;;;;0.20;0.20;;;;;;;11.88;52.74;99804.09;4955676;28;20027;-86
2024/02/11 03:56:22;;;;;;;0.20;0.20;;;;;;;11.90;53.03;99798.84;4971740;28;20390;-87
2024/02/11 03:58:49;;;;;;;0.20;0.20;;;;;;;11.93;52.66;99796.88;4971542;28;20030;-86
2024/02/11 04:01:18;;;;;;;0.10;0.10;;;;;;;12.00;52.05;99810.25;4971272;28;20504;-86
2024/02/11 04:03:43;;;;;;;0.10;0.10;;;;;;;11.94;53.10;99805.47;4971804;28;20030;-86
2024/02/11 04:06:09;;;;;;;0.20;0.20;;;;;;;11.81;52.41;99786.50;4955436;28;20121;-86
2024/02/11 04:08:35;;;;;;;0.20;0.20;;;;;;;11.96;53.21;99807.00;4971423;28;20034;-86
2024/02/11 04:11:01;;;;;;;0.10;0.10;;;;;;;11.87;54.47;99807.63;4987820;28;20125;-86
2024/02/11 04:13:27;;;;;;;0.20;0.20;;;;;;;11.87;53.99;99799.03;4972548;28;20027;-86
2024/02/11 04:16:05;;;;;;;0.20;0.20;;;;;;;11.97;53.03;99797.47;4986958;28;20043;-86
2024/02/11 04:18:32;;;;;;;0.20;0.20;;;;;;;11.90;53.04;99776.34;4971194;28;21526;-86
2024/02/11 04:20:59;;;;;;;0.20;0.20;;;;;;;11.85;53.93;99774.97;4971323;28;20023;-86
2024/02/11 04:23:25;;;;;;;0.20;0.20;;;;;;;11.88;54.10;99779.94;4955126;28;20042;-86
2024/02/11 04:25:52;;;;;;;0.20;0.20;;;;;;;11.80;54.36;99779.63;4971136;28;20035;-86
2024/02/11 04:28:20;;;;;;;0.20;0.20;;;;;;;11.85;53.89;99788.78;4955336;28;20042;-86
2024/02/11 04:30:46;;;;;;;0.20;0.20;;;;;;;11.91;53.22;99793.56;4970723;28;20515;-85
2024/02/11 04:33:15;;;;;;;0.20;0.20;;;;;;;11.96;52.67;99793.22;4987319;28;20023;-87
2024/02/11 04:35:41;;;;;;;0.20;0.20;;;;;;;11.93;52.46;99780.47;4970988;28;20065;-86
2024/02/11 04:38:12;;;;;;;0.10;0.10;;;;;;;11.94;52.96;99787.31;4954850;28;20026;-87
2024/02/11 04:40:38;;;;;;;0.10;0.10;;;;;;;11.86;52.78;99767.09;4970977;28;20034;-87
2024/02/11 04:43:03;;;;;;;0.20;0.20;;;;;;;12.03;52.34;99778.94;4954800;28;20173;-87
2024/02/11 04:45:29;;;;;;;0.20;0.20;;;;;;;12.04;51.56;99772.81;4970477;28;20092;-86
2024/02/11 04:48:03;;;;;;;0.20;0.20;;;;;;;12.15;52.81;99775.47;4970658;28;20117;-87
2024/02/11 04:50:29;;;;;;;0.20;0.20;;;;;;;12.11;53.01;99766.28;4971102;28;20114;-87
2024/02/11 04:52:56;;;;;;;0.20;0.20;;;;;;;12.21;49.88;99769.88;4970867;28;20114;-86
2024/02/11 04:55:43;;;;;;;0.20;0.20;;;;;;;12.34;52.44;99780.22;4970791;28;20081;-86
2024/02/11 04:58:15;;;;;;;0.20;0.20;;;;;;;12.37;49.89;99785.19;4971164;28;20030;-87
2024/02/11 05:00:41;;;;;;;0.10;0.10;;;;;;;12.29;48.39;99766.75;4955037;28;20548;-85
2024/02/11 05:03:06;;;;;;;0.20;0.20;;;;;;;12.69;46.55;99776.94;4970664;28;20412;-87
2024/02/11 05:05:33;;;;;;;0.20;0.20;;;;;;;12.85;47.74;99783.50;4970656;28;20488;-85
2024/02/11 05:08:03;;;;;;;0.20;0.20;;;;;;;12.88;47.96;99775.50;4970733;28;20034;-86
2024/02/11 05:10:30;;;;;;;0.20;0.20;;;;;;;12.97;46.27;99793.94;4971502;28;20031;-86
2024/02/11 05:12:59;;;;;;;0.20;0.20;;;;;;;12.95;46.92;99785.44;4974810;28;20041;-87
2024/02/11 05:15:24;;;;;;;0.15;0.15;;;;;;;12.92;47.86;99771.75;4974287;28;20106;-87
2024/02/11 05:17:51;;;;;;;0.20;0.20;;;;;;;13.11;46.81;99793.78;4974377;28;20157;-86
2024/02/11 05:20:23;;;;;;;0.20;0.20;;;;;;;13.10;47.28;99789.53;4958851;28;20509;-86
2024/02/11 05:22:55;;;;;;;0.20;0.20;;;;;;;13.08;47.10;99781.03;4958424;28;20523;-86
2024/02/11 05:25:20;;;;;;;0.20;0.20;;;;;;;13.13;47.43;99807.47;4974654;28;20117;-86
2024/02/11 05:27:56;;;;;;;0.20;0.20;;;;;;;13.14;47.84;99806.53;4958242;28;20122;-86
2024/02/11 05:30:26;;;;;;;0.20;0.20;;;;;;;13.09;46.67;99798.28;4974402;28;20113;-86
2024/02/11 05:32:53;;;;;;;0.20;0.20;;;;;;;13.16;47.11;99796.88;4974155;28;20038;-87
2024/02/11 05:35:23;;;;;;;0.20;0.20;;;;;;;13.26;47.24;99784.91;4942497;28;20030;-88
2024/02/11 05:37:58;;;;;;;0.20;0.20;;;;;;;13.53;43.53;99794.19;4974658;28;20030;-87
2024/02/11 05:40:43;;;;;;;0.20;0.20;;;;;;;13.97;40.85;99786.50;4974351;28;20049;-87
2024/02/11 05:43:09;;;;;;;0.20;0.20;;;;;;;14.27;39.53;99774.69;4958732;28;20031;-87
2024/02/11 05:45:38;;;;;;;0.20;0.20;;;;;;;14.71;38.75;99786.84;4973750;28;20065;-87
2024/02/11 05:48:04;;;;;;;0.20;0.20;;;;;;;14.95;38.02;99784.06;4973783;28;20031;-86
2024/02/11 05:50:30;;;;;;;0.20;0.20;;;;;;;15.15;37.67;99793.69;4973810;28;20400;-86
2024/02/11 05:52:55;;;;;;;0.20;0.20;;;;;;;15.37;37.45;99784.13;4973964;28;20041;-86
2024/02/11 05:55:21;;;;;;;0.20;0.20;;;;;;;15.58;36.82;99797.16;4974151;28;20400;-86
2024/02/11 05:57:48;;;;;;;0.20;0.20;;;;;;;15.70;36.35;99789.19;4973613;28;20147;-87
2024/02/11 06:00:16;;;;;;;0.10;0.10;;;;;;;15.76;35.82;99786.06;4973640;28;20431;-86
2024/02/11 06:02:42;;;;;;;0.20;0.20;;;;;;;15.92;35.58;99787.38;4973748;28;20039;-86
2024/02/11 06:05:12;;;;;;;0.20;0.20;;;;;;;15.99;35.50;99785.91;4957725;28;20031;-87
2024/02/11 06:08:04;;;;;;;0.20;0.20;;;;;;;16.14;35.04;99797.66;4973722;28;20022;-86
2024/02/11 06:10:30;;;;;;;0.20;0.20;;;;;;;16.10;35.30;99791.03;4987975;28;20039;-87
2024/02/11 06:12:57;;;;;;;0.20;0.20;;;;;;;16.18;35.57;99791.22;4957228;28;20098;-86
2024/02/11 06:15:24;;;;;;;0.20;0.20;;;;;;;16.16;35.82;99808.78;4973516;28;20475;-87
2024/02/11 06:17:50;;;;;;;0.20;0.20;;;;;;;16.03;35.81;99810.78;4973660;28;20034;-86
2024/02/11 06:20:18;;;;;;;0.10;0.10;;;;;;;16.00;35.99;99814.47;4973557;28;20027;-86
2024/02/11 06:22:49;;;;;;;0.20;0.20;;;;;;;15.96;36.08;99814.88;4972890;28;20126;-87
2024/02/11 06:25:16;;;;;;;0.20;0.20;;;;;;;15.85;36.34;99800.13;4941811;28;20386;-85
2024/02/11 06:27:41;;;;;;;0.20;0.20;;;;;;;15.75;36.68;99805.28;4988773;28;20575;-87
2024/02/11 06:30:08;;;;;;;0.20;0.20;;;;;;;15.68;37.67;99791.09;4973398;28;20170;-87
2024/02/11 06:32:36;;;;;;;0.10;0.10;;;;;;;15.56;38.68;99793.88;4967486;28;20497;-87
2024/02/11 06:35:03;;;;;;;0.20;0.20;;;;;;;15.40;38.33;99783.88;4954093;28;20031;-86
2024/02/11 06:37:30;;;;;;;0.20;0.20;;;;;;;15.38;39.10;99809.22;4969774;28;20397;-87
2024/02/11 06:39:56;;;;;;;0.20;0.20;;;;;;;15.15;39.55;99800.69;4954018;28;20034;-86
2024/02/11 06:42:21;;;;;;;0.20;0.20;;;;;;;15.05;41.35;99815.41;4953435;28;20410;-87
2024/02/11 06:44:47;;;;;;;0.20;0.20;;;;;;;14.73;42.97;99804.94;4954080;28;20421;-86
2024/02/11 06:47:14;;;;;;;0.10;0.10;;;;;;;14.44;43.51;99815.00;4953780;28;20065;-87
2024/02/11 06:49:39;;;;;;;0.10;0.10;;;;;;;14.28;44.21;99813.59;4953569;28;20059;-87
2024/02/11 06:52:10;;;;;;;0.20;0.20;;;;;;;14.13;44.92;99812.16;4953711;28;20074;-86
2024/02/11 06:54:40;;;;;;;0.10;0.10;;;;;;;14.02;44.83;99815.56;4968819;28;20034;-87
2024/02/11 06:57:10;;;;;;;0.20;0.20;;;;;;;13.95;45.60;99829.97;4953534;28;20027;-86
2024/02/11 06:59:35;;;;;;;0.20;0.20;;;;;;;13.88;45.66;99818.41;4953218;28;20055;-86
2024/02/11 07:02:01;;;;;;;0.20;0.20;;;;;;;13.85;45.47;99807.38;4937376;28;20089;-87
2024/02/11 07:04:27;;;;;;;0.20;0.20;;;;;;;13.71;45.63;99798.03;4953525;28;20038;-86
2024/02/11 07:06:53;;;;;;;0.20;0.20;;;;;;;13.73;46.83;99809.97;4953663;28;20027;-86
2024/02/11 07:09:22;;;;;;;0.20;0.20;;;;;;;13.67;47.05;99817.41;4952481;28;20042;-86
2024/02/11 07:11:49;;;;;;;0.20;0.20;;;;;;;13.65;46.90;99821.88;4953495;28;20037;-86
2024/02/11 07:14:15;;;;;;;0.20;0.20;;;;;;;13.54;47.66;99811.44;4969152;28;20090;-86
2024/02/11 07:16:43;;;;;;;0.10;0.10;;;;;;;13.58;47.31;99810.28;4953210;28;20023;-86
2024/02/11 07:19:09;;;;;;;0.20;0.20;;;;;;;13.61;46.69;99810.88;4953146;28;20062;-87
2024/02/11 07:21:36;;;;;;;0.20;0.20;;;;;;;13.59;47.00;99812.78;4952973;28;20028;-86
2024/02/11 07:24:08;;;;;;;0.20;0.20;;;;;;;13.60;48.22;99808.41;4952887;28;20032;-86
2024/02/11 07:26:34;;;;;;;0.20;0.20;;;;;;;13.63;48.28;99803.81;4952835;28;20027;-86
2024/02/11 07:29:00;;;;;;;0.20;0.20;;;;;;;13.49;48.71;99812.63;4952917;28;20027;-87
2024/02/11 07:31:29;;;;;;;0.15;0.15;;;;;;;13.56;48.34;99828.56;4952835;28;20050;-86
2024/02/11 07:33:55;;;;;;;0.20;0.20;;;;;;;13.53;49.09;99812.41;4952442;28;20034;-87
2024/02/11 07:36:22;;;;;;;0.10;0.10;;;;;;;13.60;48.78;99829.19;4968838;28;20023;-86
2024/02/11 07:38:53;;;;;;;0.20;0.20;;;;;;;13.43;48.05;99783.66;4936738;28;20027;-86
2024/02/11 07:41:19;;;;;;;0.10;0.10;;;;;;;13.64;47.46;99815.03;4952392;28;20063;-86
2024/02/11 07:43:46;;;;;;;0.20;0.20;;;;;;;13.70;48.30;99807.59;4952559;28;20027;-87
2024/02/11 07:46:15;;;;;;;0.20;0.20;;;;;;;13.80;49.28;99820.75;4952572;28;20035;-87
2024/02/11 07:48:40;;;;;;;0.20;0.20;;;;;;;13.86;47.99;99815.06;4952458;28;20400;-86
2024/02/11 07:51:06;;;;;;;0.20;0.20;;;;;;;13.81;48.50;99812.00;4952511;28;20031;-86
2024/02/11 07:53:33;;;;;;;0.20;0.20;;;;;;;13.98;45.21;99816.75;4951793;28;20417;-86
2024/02/11 07:55:59;;;;;;;0.20;0.20;;;;;;;14.10;45.58;99811.56;4952541;28;20035;-86
2024/02/11 07:58:24;;;;;;;0.20;0.20;;;;;;;14.21;45.60;99830.59;4968501;28;20032;-86
2024/02/11 08:00:50;;;;;;;0.20;0.20;;;;;;;14.29;45.29;99830.84;4953779;28;20536;-91
2024/02/11 08:03:16;;;;;;;0.20;0.20;;;;;;;14.27;45.77;99826.72;4955022;28;20505;-91
2024/02/11 08:05:41;;;;;;;0.20;0.20;;;;;;;14.37;45.52;99825.06;4953430;28;20490;-92
2024/02/11 08:08:07;;;;;;;0.20;0.20;;;;;;;14.46;45.05;99829.59;4953106;28;20493;-87
2024/02/11 08:10:32;;;;;;;0.10;0.10;;;;;;;14.52;46.06;99836.91;4969065;28;20023;-90
2024/02/11 08:12:58;;;;;;;0.20;0.20;;;;;;;14.59;45.64;99843.28;4936220;28;20086;-86
2024/02/11 08:15:24;;;;;;;0.20;0.20;;;;;;;14.80;46.32;99837.34;4953656;28;20075;-91
2024/02/11 08:17:50;;;;;;;0.20;0.20;;;;;;;14.79;44.98;99835.69;4952446;28;20473;-89
2024/02/11 08:20:19;;;;;;;0.20;0.20;;;;;;;14.86;45.41;99839.47;4953001;28;20110;-84
2024/02/11 08:22:45;;;;;;;0.20;0.20;;;;;;;14.95;45.01;99836.16;4951551;28;20031;-83
2024/02/11 08:25:11;;;;;;;0.20;0.20;;;;;;;14.96;45.29;99832.59;4935966;28;20489;-89
2024/02/11 08:27:41;;;;;;;0.10;0.10;;;;;;;15.06;44.36;99836.13;4951976;28;20538;-85
2024/02/11 08:30:10;;;;;;;0.20;0.20;;;;;;;15.09;44.56;99832.44;4952835;28;20038;-87
2024/02/11 08:32:39;;;;;;;0.15;0.15;;;;;;;15.08;44.98;99823.78;4953499;28;20039;-92
2024/02/11 08:35:08;;;;;;;0.20;0.20;;;;;;;15.06;45.76;99811.84;4952666;28;20445;-86
2024/02/11 08:37:34;;;;;;;0.20;0.20;;;;;;;15.04;46.20;99804.13;4951425;28;20027;-88
2024/02/11 08:40:00;;;;;;;0.17;0.17;;;;;;;15.15;45.68;99829.34;4952440;28;20405;-92
2024/02/11 08:42:27;;;;;;;0.20;0.20;;;;;;;15.13;45.92;99813.81;4953144;28;20034;-88
2024/02/11 08:44:52;;;;;;;0.20;0.20;;;;;;;15.12;44.70;99801.75;4951622;28;20038;-87
2024/02/11 08:47:18;;;;;;;0.20;0.20;;;;;;;15.28;44.15;99800.50;4954188;28;20109;-92
2024/02/11 08:49:46;;;;;;;0.20;0.20;;;;;;;15.33;44.61;99798.34;4970993;28;20035;-89
2024/02/11 08:52:12;;;;;;;0.20;0.20;;;;;;;15.41;45.43;99811.59;4967896;28;20031;-90
2024/02/11 08:54:38;;;;;;;0.10;0.10;;;;;;;15.52;45.50;99801.09;4953180;28;20034;-92
2024/02/11 08:57:04;;;;;;;0.10;0.10;;;;;;;15.58;44.49;99800.59;4953186;28;20113;-93
2024/02/11 08:59:30;;;;;;;0.20;0.20;;;;;;;15.69;45.52;99808.38;4939050;28;20074;-93
2024/02/11 09:01:56;;;;;;;0.10;0.10;;;;;;;15.68;44.99;99791.09;4968140;28;20038;-87
2024/02/11 09:04:23;;;;;;;0.20;0.20;;;;;;;15.77;44.89;99781.69;4952135;28;20413;-88
2024/02/11 09:06:51;;;;;;;0.20;0.20;;;;;;;15.97;44.45;99790.44;4951619;28;20031;-89
2024/02/11 09:09:25;;;;;;;0.20;0.20;;;;;;;16.06;43.50;99787.03;4951695;28;20122;-83
2024/02/11 09:11:52;;;;;;;0.10;0.10;;;;;;;16.23;43.43;99778.63;4955035;28;20024;-91
2024/02/11 09:14:18;;;;;;;0.20;0.20;;;;;;;16.30;43.44;99784.94;4982948;28;20027;-93
2024/02/11 09:16:44;;;;;;;0.17;0.17;;;;;;;16.50;42.82;99790.22;4984559;28;20038;-94
2024/02/11 09:19:10;;;;;;;0.10;0.10;;;;;;;16.69;42.62;99789.47;4970257;28;20031;-95
2024/02/11 09:21:36;;;;;;;0.20;0.20;;;;;;;16.76;39.80;99803.66;4968506;28;20096;-94
2024/02/11 09:24:01;;;;;;;0.20;0.20;;;;;;;16.87;40.64;99814.81;4982133;28;20031;-95
2024/02/11 09:26:27;;;;;;;0.20;0.20;;;;;;;17.07;38.14;99804.38;4948706;28;20034;-94
2024/02/11 09:28:53;;;;;;;0.20;0.20;;;;;;;17.23;38.17;99790.78;4976222;28;20042;-87
2024/02/11 09:31:19;;;;;;;0.20;0.20;;;;;;;17.47;35.50;99778.94;4951201;28;20027;-91
2024/02/11 09:33:44;;;;;;;0.20;0.20;;;;;;;17.83;35.42;99765.28;4968061;28;20059;-91
2024/02/11 09:36:10;;;;;;;0.20;0.20;;;;;;;18.00;34.51;99767.97;4968622;28;20035;-91
2024/02/11 09:38:37;;;;;;;0.20;0.20;;;;;;;18.30;34.48;99773.91;4967906;28;20059;-87
2024/02/11 09:41:04;;;;;;;0.20;0.20;;;;;;;18.46;34.52;99774.09;4951102;28;20031;-92
2024/02/11 09:43:29;;;;;;;0.20;0.20;;;;;;;18.71;33.80;99775.22;4967682;28;20408;-91
2024/02/11 09:45:55;;;;;;;0.20;0.20;;;;;;;18.93;33.38;99781.84;4951670;28;20039;-90
2024/02/11 09:48:23;;;;;;;0.20;0.20;;;;;;;19.03;33.12;99776.53;4951086;28;20027;-90
2024/02/11 09:50:49;;;;;;;0.10;0.10;;;;;;;19.10;33.07;99772.34;4951084;28;20038;-86
2024/02/11 09:53:15;;;;;;;0.20;0.20;;;;;;;18.98;33.18;99737.66;4952016;28;20053;-85
2024/02/11 09:55:41;;;;;;;0.20;0.20;;;;;;;19.24;32.83;99755.22;4967487;28;20031;-84
2024/02/11 09:58:06;;;;;;;0.20;0.20;;;;;;;19.32;32.53;99739.56;4937733;28;20089;-83
2024/02/11 10:00:32;;;;;;;0.10;0.10;;;;;;;19.44;32.04;99743.59;4954360;28;20494;-83
2024/02/11 10:02:59;;;;;;;0.10;0.10;;;;;;;19.71;32.41;99746.09;4970118;28;20505;-85
2024/02/11 10:05:25;;;;;;;0.20;0.20;;;;;;;19.77;31.93;99740.25;4954101;28;20035;-85
2024/02/11 10:07:52;;;;;;;0.10;0.10;;;;;;;19.89;32.20;99750.47;4954214;28;20035;-82
2024/02/11 10:10:18;;;;;;;0.20;0.20;;;;;;;19.97;31.96;99751.34;4954098;28;20054;-83
2024/02/11 10:12:43;;;;;;;0.20;0.20;;;;;;;19.96;31.67;99738.34;4954169;28;20051;-82
2024/02/11 10:15:12;;;;;;;0.20;0.20;;;;;;;20.10;31.69;99750.91;4954178;28;20023;-86
2024/02/11 10:17:41;;;;;;;0.20;0.20;;;;;;;20.19;31.51;99749.97;4969778;28;20046;-85
2024/02/11 10:20:09;;;;;;;0.20;0.20;;;;;;;20.24;31.57;99742.41;4954382;28;20027;-86
2024/02/11 10:22:35;;;;;;;0.20;0.20;;;;;;;20.24;31.77;99731.91;4954326;28;20027;-88
2024/02/11 10:25:01;;;;;;;0.20;0.20;;;;;;;20.17;31.21;99719.59;4970106;28;20053;-86
2024/02/11 10:27:26;;;;;;;0.13;0.13;;;;;;;20.21;31.38;99721.72;4953733;28;20493;-85
2024/02/11 10:29:52;;;;;;;0.20;0.20;;;;;;;20.29;31.11;99713.06;4954787;28;20410;-86
2024/02/11 10:32:18;;;;;;;0.20;0.20;;;;;;;20.25;31.58;99702.03;4953935;28;20066;-85
2024/02/11 10:34:44;;;;;;;0.20;0.20;;;;;;;20.43;31.47;99719.53;4956453;28;20035;-92
2024/02/11 10:37:10;;;;;;;0.20;0.20;;;;;;;20.39;31.32;99705.03;4958309;28;20082;-94
2024/02/11 10:39:39;;;;;;;0.10;0.10;;;;;;;20.43;30.79;99704.59;4942637;28;20114;-93
2024/02/11 10:42:08;;;;;;;0.20;0.20;;;;;;;20.45;30.70;99691.28;4955448;28;20031;-88
2024/02/11 10:44:35;;;;;;;0.10;0.10;;;;;;;20.40;30.82;99702.25;4938295;28;20520;-86
2024/02/11 10:47:00;;;;;;;0.20;0.20;;;;;;;20.36;30.76;99702.75;4953452;28;20038;-84
2024/02/11 10:49:26;;;;;;;0.20;0.20;;;;;;;20.38;30.81;99700.78;4953731;28;20027;-83
2024/02/11 10:51:52;;;;;;;0.20;0.20;;;;;;;20.47;30.87;99698.03;4953683;28;20042;-83
2024/02/11 10:54:18;;;;;;;0.10;0.10;;;;;;;20.36;30.89;99702.75;4953441;28;20035;-81
2024/02/11 10:56:44;;;;;;;0.20;0.20;;;;;;;20.27;31.24;99686.97;4954049;28;20027;-91
2024/02/11 10:59:37;;;;;;;0.20;0.20;;;;;;;20.15;31.29;99680.34;4923068;28;20113;-90
2024/02/11 11:02:03;;;;;;;0.10;0.10;;;;;;;20.08;31.79;99679.34;4955597;28;20027;-85
2024/02/11 11:04:28;;;;;;;0.20;0.20;;;;;;;20.05;31.74;99685.72;4953992;28;20053;-88
2024/02/11 11:06:54;;;;;;;0.13;0.13;;;;;;;20.03;31.83;99671.13;4953529;28;20091;-84
2024/02/11 11:09:20;;;;;;;0.10;0.10;;;;;;;20.04;31.72;99675.38;4968583;28;20038;-87
2024/02/11 11:11:45;;;;;;;0.20;0.20;;;;;;;20.03;31.91;99668.50;4953370;28;20027;-88
2024/02/11 11:14:12;;;;;;;0.20;0.20;;;;;;;19.95;32.22;99657.94;4953185;28;20082;-85
2024/02/11 11:16:38;;;;;;;0.20;0.20;;;;;;;20.04;31.94;99662.25;4953379;28;20027;-89
2024/02/11 11:19:11;;;;;;;0.20;0.20;;;;;;;20.10;31.70;99666.06;4953993;28;20401;-89
2024/02/11 11:21:36;;;;;;;;;;;;;;;20.09;31.24;99672.28;4953599;28;20042;-83
2024/02/11 11:24:02;;;;;;;0.20;0.20;;;;;;;19.67;32.19;99637.19;4953113;28;20329;-86
2024/02/11 11:26:30;;;;;;;0.20;0.20;;;;;;;19.83;32.28;99648.72;4954001;28;20054;-86
2024/02/11 11:29:03;;;;;;;0.13;0.13;;;;;;;19.96;32.14;99656.97;4954079;28;20041;-87
2024/02/11 11:31:34;;;;;;;0.20;0.20;;;;;;;20.12;32.09;99675.41;4952411;28;20118;-87
2024/02/11 11:34:00;;;;;;;0.20;0.20;;;;;;;20.08;32.21;99673.28;4937391;28;20066;-93